sensor_id;sensor_type;location;lat;lon;timestamp;P1;durP1;ratioP1;P2;durP2;ratioP2
16890;SDS011;8562;52.246;20.966;2022-11-15T00:01:54;14.97;;;7.80;;
16890;SDS011;8562;52.246;20.966;2022-11-15T00:04:38;15.83;;;8.97;;
16890;SDS011;8562;52.246;20.966;2022-11-15T00:07:23;12.63;;;8.10;;
16890;SDS011;8562;52.246;20.966;2022-11-15T00:10:08;13.57;;;8.37;;
16890;SDS011;8562;52.246;20.966;2022-11-15T00:12:52;11.73;;;7.57;;
16890;SDS011;8562;52.246;20.966;2022-11-15T00:15:40;10.17;;;7.03;;
16890;SDS011;8562;52.246;20.966;2022-11-15T00:18:25;11.60;;;7.97;;
16890;SDS011;8562;52.246;20.966;2022-11-15T00:21:10;11.90;;;7.53;;
16890;SDS011;8562;52.246;20.966;2022-11-15T00:23:55;11.57;;;7.40;;
16890;SDS011;8562;52.246;20.966;2022-11-15T00:26:40;12.67;;;8.27;;
16890;SDS011;8562;52.246;20.966;2022-11-15T00:29:25;15.00;;;8.00;;
16890;SDS011;8562;52.246;20.966;2022-11-15T00:32:10;16.07;;;8.80;;
16890;SDS011;8562;52.246;20.966;2022-11-15T00:34:54;15.40;;;8.03;;
16890;SDS011;8562;52.246;20.966;2022-11-15T00:37:39;17.27;;;9.23;;
16890;SDS011;8562;52.246;20.966;2022-11-15T00:40:23;13.23;;;8.53;;
16890;SDS011;8562;52.246;20.966;2022-11-15T00:43:08;18.60;;;9.17;;
16890;SDS011;8562;52.246;20.966;2022-11-15T00:45:53;16.60;;;9.20;;
16890;SDS011;8562;52.246;20.966;2022-11-15T00:48:37;19.13;;;10.03;;
16890;SDS011;8562;52.246;20.966;2022-11-15T00:51:22;16.37;;;9.20;;
16890;SDS011;8562;52.246;20.966;2022-11-15T00:54:06;21.30;;;9.53;;
16890;SDS011;8562;52.246;20.966;2022-11-15T00:56:51;16.00;;;8.30;;
16890;SDS011;8562;52.246;20.966;2022-11-15T00:59:35;18.87;;;9.27;;
16890;SDS011;8562;52.246;20.966;2022-11-15T01:02:20;15.90;;;9.70;;
16890;SDS011;8562;52.246;20.966;2022-11-15T01:05:06;17.23;;;9.20;;
16890;SDS011;8562;52.246;20.966;2022-11-15T01:07:51;20.03;;;9.83;;
16890;SDS011;8562;52.246;20.966;2022-11-15T01:10:36;20.03;;;10.90;;
16890;SDS011;8562;52.246;20.966;2022-11-15T01:13:21;20.80;;;10.90;;
16890;SDS011;8562;52.246;20.966;2022-11-15T01:16:10;17.37;;;10.03;;
16890;SDS011;8562;52.246;20.966;2022-11-15T01:18:56;21.10;;;10.30;;
16890;SDS011;8562;52.246;20.966;2022-11-15T01:21:40;18.97;;;11.07;;
16890;SDS011;8562;52.246;20.966;2022-11-15T01:24:25;21.70;;;11.87;;
16890;SDS011;8562;52.246;20.966;2022-11-15T01:27:10;26.93;;;13.57;;
16890;SDS011;8562;52.246;20.966;2022-11-15T01:29:54;16.83;;;10.57;;
16890;SDS011;8562;52.246;20.966;2022-11-15T01:32:39;25.00;;;11.83;;
16890;SDS011;8562;52.246;20.966;2022-11-15T01:35:23;25.77;;;11.80;;
16890;SDS011;8562;52.246;20.966;2022-11-15T01:38:08;22.97;;;10.77;;
16890;SDS011;8562;52.246;20.966;2022-11-15T01:40:52;18.43;;;10.57;;
16890;SDS011;8562;52.246;20.966;2022-11-15T01:43:39;26.63;;;11.27;;
16890;SDS011;8562;52.246;20.966;2022-11-15T01:49:13;17.73;;;9.87;;
16890;SDS011;8562;52.246;20.966;2022-11-15T01:51:59;20.87;;;11.20;;
16890;SDS011;8562;52.246;20.966;2022-11-15T01:54:44;22.17;;;10.77;;
16890;SDS011;8562;52.246;20.966;2022-11-15T01:57:29;19.67;;;11.67;;
16890;SDS011;8562;52.246;20.966;2022-11-15T02:00:14;19.17;;;10.67;;
16890;SDS011;8562;52.246;20.966;2022-11-15T02:02:59;24.17;;;10.90;;
16890;SDS011;8562;52.246;20.966;2022-11-15T02:05:44;18.77;;;9.83;;
16890;SDS011;8562;52.246;20.966;2022-11-15T02:08:28;25.10;;;10.53;;
16890;SDS011;8562;52.246;20.966;2022-11-15T02:11:13;19.80;;;11.83;;
16890;SDS011;8562;52.246;20.966;2022-11-15T02:13:58;23.13;;;11.20;;
16890;SDS011;8562;52.246;20.966;2022-11-15T02:19:46;20.70;;;11.03;;
16890;SDS011;8562;52.246;20.966;2022-11-15T02:25:37;18.90;;;11.07;;
16890;SDS011;8562;52.246;20.966;2022-11-15T02:39:46;17.13;;;9.70;;
16890;SDS011;8562;52.246;20.966;2022-11-15T02:42:33;21.10;;;10.67;;
16890;SDS011;8562;52.246;20.966;2022-11-15T02:45:44;18.27;;;10.60;;
16890;SDS011;8562;52.246;20.966;2022-11-15T02:48:30;19.43;;;11.73;;
16890;SDS011;8562;52.246;20.966;2022-11-15T02:51:15;25.10;;;13.00;;
16890;SDS011;8562;52.246;20.966;2022-11-15T02:54:00;20.97;;;12.10;;
16890;SDS011;8562;52.246;20.966;2022-11-15T02:56:45;25.80;;;11.93;;
16890;SDS011;8562;52.246;20.966;2022-11-15T03:00:03;26.37;;;13.70;;
16890;SDS011;8562;52.246;20.966;2022-11-15T03:02:58;22.13;;;12.53;;
16890;SDS011;8562;52.246;20.966;2022-11-15T03:08:51;25.00;;;13.43;;
16890;SDS011;8562;52.246;20.966;2022-11-15T03:11:44;21.87;;;10.90;;
16890;SDS011;8562;52.246;20.966;2022-11-15T03:14:35;19.87;;;10.87;;
16890;SDS011;8562;52.246;20.966;2022-11-15T03:17:25;31.83;;;14.17;;
16890;SDS011;8562;52.246;20.966;2022-11-15T03:20:11;25.43;;;12.83;;
16890;SDS011;8562;52.246;20.966;2022-11-15T03:22:58;20.33;;;12.77;;
16890;SDS011;8562;52.246;20.966;2022-11-15T03:25:45;29.10;;;13.90;;
16890;SDS011;8562;52.246;20.966;2022-11-15T03:28:42;30.30;;;13.67;;
16890;SDS011;8562;52.246;20.966;2022-11-15T03:31:29;26.00;;;12.67;;
16890;SDS011;8562;52.246;20.966;2022-11-15T03:34:47;25.47;;;13.53;;
16890;SDS011;8562;52.246;20.966;2022-11-15T03:37:35;27.33;;;13.93;;
16890;SDS011;8562;52.246;20.966;2022-11-15T03:41:22;20.87;;;12.67;;
16890;SDS011;8562;52.246;20.966;2022-11-15T03:46:24;23.97;;;12.03;;
16890;SDS011;8562;52.246;20.966;2022-11-15T03:49:11;23.07;;;12.73;;
16890;SDS011;8562;52.246;20.966;2022-11-15T03:51:58;20.97;;;13.03;;
16890;SDS011;8562;52.246;20.966;2022-11-15T03:54:54;26.70;;;13.00;;
16890;SDS011;8562;52.246;20.966;2022-11-15T03:57:39;20.80;;;11.67;;
16890;SDS011;8562;52.246;20.966;2022-11-15T04:00:23;24.37;;;11.27;;
16890;SDS011;8562;52.246;20.966;2022-11-15T04:03:08;25.47;;;13.63;;
16890;SDS011;8562;52.246;20.966;2022-11-15T04:05:52;23.60;;;13.13;;
16890;SDS011;8562;52.246;20.966;2022-11-15T04:08:37;25.77;;;13.27;;
16890;SDS011;8562;52.246;20.966;2022-11-15T04:11:21;21.23;;;12.90;;
16890;SDS011;8562;52.246;20.966;2022-11-15T04:14:06;27.90;;;12.40;;
16890;SDS011;8562;52.246;20.966;2022-11-15T04:16:50;26.33;;;12.30;;
16890;SDS011;8562;52.246;20.966;2022-11-15T04:19:35;24.20;;;12.47;;
16890;SDS011;8562;52.246;20.966;2022-11-15T04:22:38;24.87;;;11.47;;
16890;SDS011;8562;52.246;20.966;2022-11-15T04:25:42;22.57;;;12.90;;
16890;SDS011;8562;52.246;20.966;2022-11-15T04:28:27;27.77;;;12.43;;
16890;SDS011;8562;52.246;20.966;2022-11-15T04:31:12;28.43;;;12.30;;
16890;SDS011;8562;52.246;20.966;2022-11-15T04:33:57;27.43;;;12.97;;
16890;SDS011;8562;52.246;20.966;2022-11-15T04:36:42;25.87;;;13.17;;
16890;SDS011;8562;52.246;20.966;2022-11-15T04:39:45;23.07;;;12.40;;
16890;SDS011;8562;52.246;20.966;2022-11-15T04:42:30;26.20;;;12.20;;
16890;SDS011;8562;52.246;20.966;2022-11-15T04:45:14;25.67;;;12.77;;
16890;SDS011;8562;52.246;20.966;2022-11-15T04:47:59;23.77;;;10.87;;
16890;SDS011;8562;52.246;20.966;2022-11-15T04:50:43;21.50;;;11.70;;
16890;SDS011;8562;52.246;20.966;2022-11-15T04:53:28;21.33;;;11.73;;
16890;SDS011;8562;52.246;20.966;2022-11-15T04:56:12;22.33;;;10.37;;
16890;SDS011;8562;52.246;20.966;2022-11-15T04:58:57;27.87;;;11.93;;
16890;SDS011;8562;52.246;20.966;2022-11-15T05:01:41;19.50;;;11.27;;
16890;SDS011;8562;52.246;20.966;2022-11-15T05:04:26;23.07;;;11.53;;
16890;SDS011;8562;52.246;20.966;2022-11-15T05:07:11;26.37;;;12.23;;
16890;SDS011;8562;52.246;20.966;2022-11-15T05:09:55;24.87;;;11.03;;
16890;SDS011;8562;52.246;20.966;2022-11-15T05:12:40;23.37;;;11.23;;
16890;SDS011;8562;52.246;20.966;2022-11-15T05:15:24;22.60;;;11.70;;
16890;SDS011;8562;52.246;20.966;2022-11-15T05:18:09;19.00;;;11.60;;
16890;SDS011;8562;52.246;20.966;2022-11-15T05:20:54;26.50;;;12.43;;
16890;SDS011;8562;52.246;20.966;2022-11-15T05:23:39;19.50;;;11.87;;
16890;SDS011;8562;52.246;20.966;2022-11-15T05:26:24;23.67;;;12.57;;
16890;SDS011;8562;52.246;20.966;2022-11-15T05:29:09;17.10;;;10.23;;
16890;SDS011;8562;52.246;20.966;2022-11-15T05:31:54;27.40;;;12.87;;
16890;SDS011;8562;52.246;20.966;2022-11-15T05:34:39;21.40;;;10.93;;
16890;SDS011;8562;52.246;20.966;2022-11-15T05:37:23;30.17;;;13.13;;
16890;SDS011;8562;52.246;20.966;2022-11-15T05:40:08;27.93;;;11.87;;
16890;SDS011;8562;52.246;20.966;2022-11-15T05:42:52;19.60;;;11.07;;
16890;SDS011;8562;52.246;20.966;2022-11-15T05:45:37;20.10;;;10.83;;
16890;SDS011;8562;52.246;20.966;2022-11-15T05:48:22;24.57;;;11.83;;
16890;SDS011;8562;52.246;20.966;2022-11-15T05:51:07;26.33;;;11.50;;
16890;SDS011;8562;52.246;20.966;2022-11-15T05:53:52;27.40;;;10.67;;
16890;SDS011;8562;52.246;20.966;2022-11-15T05:56:37;23.30;;;11.50;;
16890;SDS011;8562;52.246;20.966;2022-11-15T05:59:22;26.63;;;12.40;;
16890;SDS011;8562;52.246;20.966;2022-11-15T06:02:07;26.13;;;11.97;;
16890;SDS011;8562;52.246;20.966;2022-11-15T06:04:52;22.70;;;10.43;;
16890;SDS011;8562;52.246;20.966;2022-11-15T06:07:36;24.60;;;10.53;;
16890;SDS011;8562;52.246;20.966;2022-11-15T06:10:21;19.10;;;11.00;;
16890;SDS011;8562;52.246;20.966;2022-11-15T06:13:05;28.30;;;12.87;;
16890;SDS011;8562;52.246;20.966;2022-11-15T06:15:50;25.50;;;10.73;;
16890;SDS011;8562;52.246;20.966;2022-11-15T06:18:35;17.63;;;8.73;;
16890;SDS011;8562;52.246;20.966;2022-11-15T06:21:20;29.00;;;11.60;;
16890;SDS011;8562;52.246;20.966;2022-11-15T06:24:04;24.30;;;10.87;;
16890;SDS011;8562;52.246;20.966;2022-11-15T06:26:49;18.87;;;9.07;;
16890;SDS011;8562;52.246;20.966;2022-11-15T06:29:34;19.90;;;10.17;;
16890;SDS011;8562;52.246;20.966;2022-11-15T06:32:18;22.33;;;12.37;;
16890;SDS011;8562;52.246;20.966;2022-11-15T06:35:03;26.40;;;10.93;;
16890;SDS011;8562;52.246;20.966;2022-11-15T06:37:48;19.70;;;10.63;;
16890;SDS011;8562;52.246;20.966;2022-11-15T06:40:36;18.30;;;8.70;;
16890;SDS011;8562;52.246;20.966;2022-11-15T06:43:21;20.27;;;10.13;;
16890;SDS011;8562;52.246;20.966;2022-11-15T06:46:05;17.83;;;8.97;;
16890;SDS011;8562;52.246;20.966;2022-11-15T06:48:51;23.10;;;10.67;;
16890;SDS011;8562;52.246;20.966;2022-11-15T06:51:35;20.30;;;11.00;;
16890;SDS011;8562;52.246;20.966;2022-11-15T06:54:20;20.80;;;9.57;;
16890;SDS011;8562;52.246;20.966;2022-11-15T06:57:05;17.63;;;9.23;;
16890;SDS011;8562;52.246;20.966;2022-11-15T06:59:50;22.93;;;10.50;;
16890;SDS011;8562;52.246;20.966;2022-11-15T07:02:35;22.37;;;8.93;;
16890;SDS011;8562;52.246;20.966;2022-11-15T07:05:19;18.67;;;10.00;;
16890;SDS011;8562;52.246;20.966;2022-11-15T07:08:04;17.63;;;8.87;;
16890;SDS011;8562;52.246;20.966;2022-11-15T07:10:48;19.87;;;10.67;;
16890;SDS011;8562;52.246;20.966;2022-11-15T07:13:34;23.10;;;9.77;;
16890;SDS011;8562;52.246;20.966;2022-11-15T07:16:19;17.33;;;9.97;;
16890;SDS011;8562;52.246;20.966;2022-11-15T07:19:04;23.57;;;11.33;;
16890;SDS011;8562;52.246;20.966;2022-11-15T07:21:49;20.33;;;10.00;;
16890;SDS011;8562;52.246;20.966;2022-11-15T07:24:33;16.70;;;9.57;;
16890;SDS011;8562;52.246;20.966;2022-11-15T07:27:18;15.10;;;8.40;;
16890;SDS011;8562;52.246;20.966;2022-11-15T07:30:03;19.87;;;8.00;;
16890;SDS011;8562;52.246;20.966;2022-11-15T07:32:51;19.80;;;8.90;;
16890;SDS011;8562;52.246;20.966;2022-11-15T07:35:36;19.13;;;9.30;;
16890;SDS011;8562;52.246;20.966;2022-11-15T07:38:20;17.13;;;8.27;;
16890;SDS011;8562;52.246;20.966;2022-11-15T07:41:05;14.17;;;7.60;;
16890;SDS011;8562;52.246;20.966;2022-11-15T07:43:51;25.77;;;9.37;;
16890;SDS011;8562;52.246;20.966;2022-11-15T07:46:36;18.40;;;9.93;;
16890;SDS011;8562;52.246;20.966;2022-11-15T07:49:21;15.93;;;8.07;;
16890;SDS011;8562;52.246;20.966;2022-11-15T07:52:06;16.53;;;8.40;;
16890;SDS011;8562;52.246;20.966;2022-11-15T07:54:50;19.60;;;9.00;;
16890;SDS011;8562;52.246;20.966;2022-11-15T07:57:35;21.77;;;10.77;;
16890;SDS011;8562;52.246;20.966;2022-11-15T08:00:19;20.97;;;9.83;;
16890;SDS011;8562;52.246;20.966;2022-11-15T08:03:11;17.73;;;8.97;;
16890;SDS011;8562;52.246;20.966;2022-11-15T08:05:56;16.27;;;9.77;;
16890;SDS011;8562;52.246;20.966;2022-11-15T08:08:40;17.13;;;9.43;;
16890;SDS011;8562;52.246;20.966;2022-11-15T08:11:25;19.73;;;9.53;;
16890;SDS011;8562;52.246;20.966;2022-11-15T08:14:09;18.43;;;10.03;;
16890;SDS011;8562;52.246;20.966;2022-11-15T08:16:54;23.73;;;12.23;;
16890;SDS011;8562;52.246;20.966;2022-11-15T08:19:39;25.63;;;11.10;;
16890;SDS011;8562;52.246;20.966;2022-11-15T08:22:24;18.73;;;9.47;;
16890;SDS011;8562;52.246;20.966;2022-11-15T08:25:08;18.57;;;10.73;;
16890;SDS011;8562;52.246;20.966;2022-11-15T08:27:55;25.00;;;10.20;;
16890;SDS011;8562;52.246;20.966;2022-11-15T08:30:41;19.23;;;8.87;;
16890;SDS011;8562;52.246;20.966;2022-11-15T08:33:26;20.93;;;9.10;;
16890;SDS011;8562;52.246;20.966;2022-11-15T08:36:12;17.43;;;9.23;;
16890;SDS011;8562;52.246;20.966;2022-11-15T08:38:58;15.30;;;8.40;;
16890;SDS011;8562;52.246;20.966;2022-11-15T08:41:42;15.23;;;9.10;;
16890;SDS011;8562;52.246;20.966;2022-11-15T08:44:28;19.17;;;8.20;;
16890;SDS011;8562;52.246;20.966;2022-11-15T08:47:12;15.83;;;9.47;;
16890;SDS011;8562;52.246;20.966;2022-11-15T08:49:57;15.33;;;8.97;;
16890;SDS011;8562;52.246;20.966;2022-11-15T08:52:42;18.73;;;9.20;;
16890;SDS011;8562;52.246;20.966;2022-11-15T08:55:26;18.80;;;9.37;;
16890;SDS011;8562;52.246;20.966;2022-11-15T08:58:11;19.00;;;10.03;;
16890;SDS011;8562;52.246;20.966;2022-11-15T09:00:55;15.23;;;8.93;;
16890;SDS011;8562;52.246;20.966;2022-11-15T09:03:40;21.00;;;10.07;;
16890;SDS011;8562;52.246;20.966;2022-11-15T09:06:25;14.70;;;8.93;;
16890;SDS011;8562;52.246;20.966;2022-11-15T09:09:10;17.30;;;9.07;;
16890;SDS011;8562;52.246;20.966;2022-11-15T09:11:54;24.07;;;9.83;;
16890;SDS011;8562;52.246;20.966;2022-11-15T09:14:39;17.60;;;9.33;;
16890;SDS011;8562;52.246;20.966;2022-11-15T09:17:23;18.07;;;11.27;;
16890;SDS011;8562;52.246;20.966;2022-11-15T09:20:08;20.63;;;9.37;;
16890;SDS011;8562;52.246;20.966;2022-11-15T09:22:53;16.13;;;8.77;;
16890;SDS011;8562;52.246;20.966;2022-11-15T09:25:37;18.40;;;9.30;;
16890;SDS011;8562;52.246;20.966;2022-11-15T09:28:22;16.00;;;9.13;;
16890;SDS011;8562;52.246;20.966;2022-11-15T09:31:07;15.47;;;8.23;;
16890;SDS011;8562;52.246;20.966;2022-11-15T09:33:51;18.67;;;8.83;;
16890;SDS011;8562;52.246;20.966;2022-11-15T09:36:36;20.73;;;10.03;;
16890;SDS011;8562;52.246;20.966;2022-11-15T09:39:20;16.60;;;8.57;;
16890;SDS011;8562;52.246;20.966;2022-11-15T09:50:57;19.57;;;10.33;;
16890;SDS011;8562;52.246;20.966;2022-11-15T09:53:29;17.00;;;9.37;;
16890;SDS011;8562;52.246;20.966;2022-11-15T09:56:01;19.03;;;10.63;;
16890;SDS011;8562;52.246;20.966;2022-11-15T10:00:54;17.17;;;9.53;;
16890;SDS011;8562;52.246;20.966;2022-11-15T10:03:28;19.43;;;9.30;;
16890;SDS011;8562;52.246;20.966;2022-11-15T10:05:59;18.13;;;9.43;;
16890;SDS011;8562;52.246;20.966;2022-11-15T10:08:37;22.00;;;12.47;;
16890;SDS011;8562;52.246;20.966;2022-11-15T10:11:07;16.07;;;9.70;;
16890;SDS011;8562;52.246;20.966;2022-11-15T10:13:34;18.20;;;9.90;;
16890;SDS011;8562;52.246;20.966;2022-11-15T10:19:34;19.90;;;11.67;;
16890;SDS011;8562;52.246;20.966;2022-11-15T10:21:48;16.03;;;9.70;;
16890;SDS011;8562;52.246;20.966;2022-11-15T10:24:19;22.70;;;10.40;;
16890;SDS011;8562;52.246;20.966;2022-11-15T10:26:46;18.70;;;10.60;;
16890;SDS011;8562;52.246;20.966;2022-11-15T10:29:17;20.83;;;9.37;;
16890;SDS011;8562;52.246;20.966;2022-11-15T10:31:43;18.67;;;10.30;;
16890;SDS011;8562;52.246;20.966;2022-11-15T10:34:13;21.37;;;11.60;;
16890;SDS011;8562;52.246;20.966;2022-11-15T10:36:43;17.77;;;9.47;;
16890;SDS011;8562;52.246;20.966;2022-11-15T10:39:11;23.13;;;10.83;;
16890;SDS011;8562;52.246;20.966;2022-11-15T10:41:38;18.77;;;8.97;;
16890;SDS011;8562;52.246;20.966;2022-11-15T10:47:04;15.23;;;9.73;;
16890;SDS011;8562;52.246;20.966;2022-11-15T10:49:31;14.70;;;8.83;;
16890;SDS011;8562;52.246;20.966;2022-11-15T10:52:09;20.17;;;10.63;;
16890;SDS011;8562;52.246;20.966;2022-11-15T10:54:42;20.53;;;11.03;;
16890;SDS011;8562;52.246;20.966;2022-11-15T10:57:12;16.87;;;10.30;;
16890;SDS011;8562;52.246;20.966;2022-11-15T10:59:42;20.23;;;10.73;;
16890;SDS011;8562;52.246;20.966;2022-11-15T11:04:53;21.97;;;11.77;;
16890;SDS011;8562;52.246;20.966;2022-11-15T11:07:23;19.17;;;10.43;;
16890;SDS011;8562;52.246;20.966;2022-11-15T11:09:57;19.30;;;10.67;;
16890;SDS011;8562;52.246;20.966;2022-11-15T11:12:31;25.77;;;12.13;;
16890;SDS011;8562;52.246;20.966;2022-11-15T11:14:58;22.47;;;11.03;;
16890;SDS011;8562;52.246;20.966;2022-11-15T11:27:36;24.57;;;11.37;;
16890;SDS011;8562;52.246;20.966;2022-11-15T11:40:34;18.73;;;11.73;;
16890;SDS011;8562;52.246;20.966;2022-11-15T11:48:07;33.93;;;12.67;;
16890;SDS011;8562;52.246;20.966;2022-11-15T11:50:38;19.77;;;10.90;;
16890;SDS011;8562;52.246;20.966;2022-11-15T11:53:15;24.43;;;12.53;;
16890;SDS011;8562;52.246;20.966;2022-11-15T11:55:44;22.47;;;13.03;;
16890;SDS011;8562;52.246;20.966;2022-11-15T11:58:19;22.13;;;12.80;;
16890;SDS011;8562;52.246;20.966;2022-11-15T12:00:49;28.10;;;13.27;;
16890;SDS011;8562;52.246;20.966;2022-11-15T12:03:34;24.77;;;12.40;;
16890;SDS011;8562;52.246;20.966;2022-11-15T12:06:02;24.47;;;13.87;;
16890;SDS011;8562;52.246;20.966;2022-11-15T12:08:47;22.53;;;12.50;;
16890;SDS011;8562;52.246;20.966;2022-11-15T12:13:44;19.73;;;12.43;;
16890;SDS011;8562;52.246;20.966;2022-11-15T12:16:22;22.53;;;13.27;;
16890;SDS011;8562;52.246;20.966;2022-11-15T12:18:51;24.37;;;11.90;;
16890;SDS011;8562;52.246;20.966;2022-11-15T12:23:48;25.27;;;11.83;;
16890;SDS011;8562;52.246;20.966;2022-11-15T12:26:17;23.23;;;13.43;;
16890;SDS011;8562;52.246;20.966;2022-11-15T12:29:06;28.10;;;14.10;;
16890;SDS011;8562;52.246;20.966;2022-11-15T12:34:02;29.10;;;14.20;;
16890;SDS011;8562;52.246;20.966;2022-11-15T12:36:30;22.73;;;12.37;;
16890;SDS011;8562;52.246;20.966;2022-11-15T12:38:58;28.30;;;13.10;;
16890;SDS011;8562;52.246;20.966;2022-11-15T12:41:29;25.87;;;13.97;;
16890;SDS011;8562;52.246;20.966;2022-11-15T12:43:55;26.60;;;13.83;;
16890;SDS011;8562;52.246;20.966;2022-11-15T12:49:01;23.67;;;12.17;;
16890;SDS011;8562;52.246;20.966;2022-11-15T13:02:18;29.47;;;13.37;;
16890;SDS011;8562;52.246;20.966;2022-11-15T13:04:44;25.13;;;12.10;;
16890;SDS011;8562;52.246;20.966;2022-11-15T13:07:54;25.70;;;13.50;;
16890;SDS011;8562;52.246;20.966;2022-11-15T13:09:56;21.17;;;12.33;;
16890;SDS011;8562;52.246;20.966;2022-11-15T13:14:52;22.53;;;13.13;;
16890;SDS011;8562;52.246;20.966;2022-11-15T13:19:45;28.17;;;14.30;;
16890;SDS011;8562;52.246;20.966;2022-11-15T13:22:12;29.50;;;14.93;;
16890;SDS011;8562;52.246;20.966;2022-11-15T13:24:57;26.23;;;13.27;;
16890;SDS011;8562;52.246;20.966;2022-11-15T13:27:23;28.40;;;15.20;;
16890;SDS011;8562;52.246;20.966;2022-11-15T13:29:50;23.70;;;12.43;;
16890;SDS011;8562;52.246;20.966;2022-11-15T13:32:16;22.97;;;11.67;;
16890;SDS011;8562;52.246;20.966;2022-11-15T13:34:43;25.50;;;12.90;;
16890;SDS011;8562;52.246;20.966;2022-11-15T13:39:47;22.67;;;12.40;;
16890;SDS011;8562;52.246;20.966;2022-11-15T13:42:18;33.00;;;15.20;;
16890;SDS011;8562;52.246;20.966;2022-11-15T13:45:00;26.87;;;13.93;;
16890;SDS011;8562;52.246;20.966;2022-11-15T13:47:27;25.00;;;13.93;;
16890;SDS011;8562;52.246;20.966;2022-11-15T13:49:56;28.53;;;15.13;;
16890;SDS011;8562;52.246;20.966;2022-11-15T13:52:22;30.00;;;15.57;;
16890;SDS011;8562;52.246;20.966;2022-11-15T13:54:59;21.90;;;13.07;;
16890;SDS011;8562;52.246;20.966;2022-11-15T13:57:29;24.33;;;12.43;;
16890;SDS011;8562;52.246;20.966;2022-11-15T13:59:57;27.07;;;15.10;;
16890;SDS011;8562;52.246;20.966;2022-11-15T14:05:02;27.97;;;14.10;;
16890;SDS011;8562;52.246;20.966;2022-11-15T14:07:28;25.23;;;14.00;;
16890;SDS011;8562;52.246;20.966;2022-11-15T14:09:55;26.73;;;14.50;;
16890;SDS011;8562;52.246;20.966;2022-11-15T14:14:47;31.87;;;13.73;;
16890;SDS011;8562;52.246;20.966;2022-11-15T14:17:47;24.47;;;13.80;;
16890;SDS011;8562;52.246;20.966;2022-11-15T14:23:23;28.90;;;14.07;;
16890;SDS011;8562;52.246;20.966;2022-11-15T14:25:53;23.23;;;13.37;;
16890;SDS011;8562;52.246;20.966;2022-11-15T14:30:49;25.83;;;13.27;;
16890;SDS011;8562;52.246;20.966;2022-11-15T14:33:32;25.50;;;12.90;;
16890;SDS011;8562;52.246;20.966;2022-11-15T14:36:20;24.13;;;14.03;;
16890;SDS011;8562;52.246;20.966;2022-11-15T14:38:45;22.67;;;12.00;;
16890;SDS011;8562;52.246;20.966;2022-11-15T14:41:22;30.77;;;13.73;;
16890;SDS011;8562;52.246;20.966;2022-11-15T14:43:48;31.00;;;13.47;;
16890;SDS011;8562;52.246;20.966;2022-11-15T14:46:14;32.47;;;14.40;;
16890;SDS011;8562;52.246;20.966;2022-11-15T14:48:40;25.73;;;13.23;;
16890;SDS011;8562;52.246;20.966;2022-11-15T14:51:13;28.73;;;13.73;;
16890;SDS011;8562;52.246;20.966;2022-11-15T14:53:40;28.33;;;14.50;;
16890;SDS011;8562;52.246;20.966;2022-11-15T14:56:06;30.67;;;13.07;;
16890;SDS011;8562;52.246;20.966;2022-11-15T14:58:32;24.30;;;13.07;;
16890;SDS011;8562;52.246;20.966;2022-11-15T15:00:58;23.50;;;12.77;;
16890;SDS011;8562;52.246;20.966;2022-11-15T15:03:24;32.57;;;12.77;;
16890;SDS011;8562;52.246;20.966;2022-11-15T15:05:50;23.93;;;13.40;;
16890;SDS011;8562;52.246;20.966;2022-11-15T15:08:17;29.70;;;14.47;;
16890;SDS011;8562;52.246;20.966;2022-11-15T15:10:44;28.53;;;13.77;;
16890;SDS011;8562;52.246;20.966;2022-11-15T15:15:42;29.07;;;14.97;;
16890;SDS011;8562;52.246;20.966;2022-11-15T15:18:08;30.43;;;14.57;;
16890;SDS011;8562;52.246;20.966;2022-11-15T15:20:36;29.07;;;13.30;;
16890;SDS011;8562;52.246;20.966;2022-11-15T15:23:04;23.60;;;12.37;;
16890;SDS011;8562;52.246;20.966;2022-11-15T15:25:32;28.87;;;13.67;;
16890;SDS011;8562;52.246;20.966;2022-11-15T15:27:58;26.20;;;12.90;;
16890;SDS011;8562;52.246;20.966;2022-11-15T15:30:25;32.87;;;14.67;;
16890;SDS011;8562;52.246;20.966;2022-11-15T15:32:51;29.90;;;13.10;;
16890;SDS011;8562;52.246;20.966;2022-11-15T15:35:19;24.33;;;13.00;;
16890;SDS011;8562;52.246;20.966;2022-11-15T15:37:45;27.53;;;13.87;;
16890;SDS011;8562;52.246;20.966;2022-11-15T15:40:16;30.60;;;14.13;;
16890;SDS011;8562;52.246;20.966;2022-11-15T15:42:43;34.90;;;14.03;;
16890;SDS011;8562;52.246;20.966;2022-11-15T15:45:09;28.33;;;12.50;;
16890;SDS011;8562;52.246;20.966;2022-11-15T15:47:35;30.33;;;14.30;;
16890;SDS011;8562;52.246;20.966;2022-11-15T15:50:02;27.37;;;14.43;;
16890;SDS011;8562;52.246;20.966;2022-11-15T15:52:29;25.37;;;12.90;;
16890;SDS011;8562;52.246;20.966;2022-11-15T15:54:55;31.87;;;14.73;;
16890;SDS011;8562;52.246;20.966;2022-11-15T15:57:21;25.13;;;13.10;;
16890;SDS011;8562;52.246;20.966;2022-11-15T15:59:47;24.17;;;12.53;;
16890;SDS011;8562;52.246;20.966;2022-11-15T16:02:14;26.23;;;12.53;;
16890;SDS011;8562;52.246;20.966;2022-11-15T16:04:40;30.23;;;15.20;;
16890;SDS011;8562;52.246;20.966;2022-11-15T16:07:07;30.43;;;15.13;;
16890;SDS011;8562;52.246;20.966;2022-11-15T16:09:37;29.70;;;14.83;;
16890;SDS011;8562;52.246;20.966;2022-11-15T16:12:22;28.17;;;13.60;;
16890;SDS011;8562;52.246;20.966;2022-11-15T16:14:48;31.27;;;15.63;;
16890;SDS011;8562;52.246;20.966;2022-11-15T16:17:16;32.70;;;13.23;;
16890;SDS011;8562;52.246;20.966;2022-11-15T16:19:43;29.27;;;14.43;;
16890;SDS011;8562;52.246;20.966;2022-11-15T16:22:09;26.13;;;12.57;;
16890;SDS011;8562;52.246;20.966;2022-11-15T16:24:35;33.97;;;15.70;;
16890;SDS011;8562;52.246;20.966;2022-11-15T16:27:01;31.13;;;15.60;;
16890;SDS011;8562;52.246;20.966;2022-11-15T16:29:27;37.60;;;14.77;;
16890;SDS011;8562;52.246;20.966;2022-11-15T16:31:54;30.80;;;15.70;;
16890;SDS011;8562;52.246;20.966;2022-11-15T16:34:20;27.90;;;14.07;;
16890;SDS011;8562;52.246;20.966;2022-11-15T16:36:47;23.17;;;12.77;;
16890;SDS011;8562;52.246;20.966;2022-11-15T16:39:13;38.63;;;15.90;;
16890;SDS011;8562;52.246;20.966;2022-11-15T16:41:42;27.90;;;13.33;;
16890;SDS011;8562;52.246;20.966;2022-11-15T16:44:11;28.20;;;14.07;;
16890;SDS011;8562;52.246;20.966;2022-11-15T16:46:38;32.27;;;13.83;;
16890;SDS011;8562;52.246;20.966;2022-11-15T16:49:08;28.20;;;13.13;;
16890;SDS011;8562;52.246;20.966;2022-11-15T16:51:38;28.30;;;13.73;;
16890;SDS011;8562;52.246;20.966;2022-11-15T16:54:05;35.33;;;15.10;;
16890;SDS011;8562;52.246;20.966;2022-11-15T16:56:32;36.33;;;14.23;;
16890;SDS011;8562;52.246;20.966;2022-11-15T16:58:59;23.00;;;11.80;;
16890;SDS011;8562;52.246;20.966;2022-11-15T17:03:51;35.30;;;13.20;;
16890;SDS011;8562;52.246;20.966;2022-11-15T17:06:17;24.43;;;11.27;;
16890;SDS011;8562;52.246;20.966;2022-11-15T17:08:44;29.23;;;12.27;;
16890;SDS011;8562;52.246;20.966;2022-11-15T17:11:12;31.50;;;13.17;;
16890;SDS011;8562;52.246;20.966;2022-11-15T17:13:39;35.93;;;13.67;;
16890;SDS011;8562;52.246;20.966;2022-11-15T17:16:06;33.17;;;13.67;;
16890;SDS011;8562;52.246;20.966;2022-11-15T17:18:33;37.57;;;14.83;;
16890;SDS011;8562;52.246;20.966;2022-11-15T17:21:03;29.70;;;13.10;;
16890;SDS011;8562;52.246;20.966;2022-11-15T17:23:29;33.73;;;13.33;;
16890;SDS011;8562;52.246;20.966;2022-11-15T17:25:59;33.43;;;11.97;;
16890;SDS011;8562;52.246;20.966;2022-11-15T17:28:25;31.63;;;10.97;;
16890;SDS011;8562;52.246;20.966;2022-11-15T17:30:51;24.03;;;12.37;;